sensor_id;sensor_type;location;lat;lon;timestamp;temperature;humidity
32612;DHT22;19030;49.478;8.986;2023-08-24T00:01:41;17.30;99.90
32612;DHT22;19030;49.478;8.986;2023-08-24T00:03:44;17.30;99.90
32612;DHT22;19030;49.478;8.986;2023-08-24T00:05:47;17.30;99.90
32612;DHT22;19030;49.478;8.986;2023-08-24T00:07:48;17.30;99.90
32612;DHT22;19030;49.478;8.986;2023-08-24T00:09:48;17.30;99.90
32612;DHT22;19030;49.478;8.986;2023-08-24T00:11:49;17.30;99.90
32612;DHT22;19030;49.478;8.986;2023-08-24T00:13:50;17.30;99.90
32612;DHT22;19030;49.478;8.986;2023-08-24T00:15:53;17.20;99.90
32612;DHT22;19030;49.478;8.986;2023-08-24T00:17:54;17.30;99.90
32612;DHT22;19030;49.478;8.986;2023-08-24T00:19:54;17.20;99.90
32612;DHT22;19030;49.478;8.986;2023-08-24T00:21:55;17.20;99.90
32612;DHT22;19030;49.478;8.986;2023-08-24T00:23:55;17.20;99.90
32612;DHT22;19030;49.478;8.986;2023-08-24T00:25:56;17.10;99.90
32612;DHT22;19030;49.478;8.986;2023-08-24T00:27:57;17.10;99.90
32612;DHT22;19030;49.478;8.986;2023-08-24T00:29:58;17.00;99.90
32612;DHT22;19030;49.478;8.986;2023-08-24T00:31:59;17.00;99.90
32612;DHT22;19030;49.478;8.986;2023-08-24T00:34:00;17.00;99.90
32612;DHT22;19030;49.478;8.986;2023-08-24T00:36:01;17.00;99.90
32612;DHT22;19030;49.478;8.986;2023-08-24T00:38:02;16.90;99.90
32612;DHT22;19030;49.478;8.986;2023-08-24T00:40:05;16.90;99.90
32612;DHT22;19030;49.478;8.986;2023-08-24T00:42:10;16.90;99.90
32612;DHT22;19030;49.478;8.986;2023-08-24T00:44:15;16.90;99.90
32612;DHT22;19030;49.478;8.986;2023-08-24T00:46:16;16.90;99.90
32612;DHT22;19030;49.478;8.986;2023-08-24T00:48:18;16.90;99.90
32612;DHT22;19030;49.478;8.986;2023-08-24T00:50:19;16.80;99.90
32612;DHT22;19030;49.478;8.986;2023-08-24T00:52:20;16.80;99.90
32612;DHT22;19030;49.478;8.986;2023-08-24T00:54:21;16.80;99.90
32612;DHT22;19030;49.478;8.986;2023-08-24T00:56:22;16.80;99.90
32612;DHT22;19030;49.478;8.986;2023-08-24T00:58:26;16.70;99.90
32612;DHT22;19030;49.478;8.986;2023-08-24T01:00:27;16.70;99.90
32612;DHT22;19030;49.478;8.986;2023-08-24T01:02:28;16.70;99.90
32612;DHT22;19030;49.478;8.986;2023-08-24T01:04:29;16.70;99.90
32612;DHT22;19030;49.478;8.986;2023-08-24T01:06:30;16.70;99.90
32612;DHT22;19030;49.478;8.986;2023-08-24T01:08:30;16.70;99.90
32612;DHT22;19030;49.478;8.986;2023-08-24T01:10:52;16.70;99.90
32612;DHT22;19030;49.478;8.986;2023-08-24T01:13:09;16.70;99.90
32612;DHT22;19030;49.478;8.986;2023-08-24T01:17:22;16.70;99.90
32612;DHT22;19030;49.478;8.986;2023-08-24T01:21:30;16.60;99.90
32612;DHT22;19030;49.478;8.986;2023-08-24T01:23:36;16.60;99.90
32612;DHT22;19030;49.478;8.986;2023-08-24T01:26:07;16.60;99.90
32612;DHT22;19030;49.478;8.986;2023-08-24T01:28:08;16.60;99.90
32612;DHT22;19030;49.478;8.986;2023-08-24T01:30:10;16.60;99.90
32612;DHT22;19030;49.478;8.986;2023-08-24T01:32:11;16.50;99.90
32612;DHT22;19030;49.478;8.986;2023-08-24T01:34:14;16.60;99.90
32612;DHT22;19030;49.478;8.986;2023-08-24T01:36:15;16.50;99.90
32612;DHT22;19030;49.478;8.986;2023-08-24T01:38:20;16.50;99.90
32612;DHT22;19030;49.478;8.986;2023-08-24T01:40:26;16.50;99.90
32612;DHT22;19030;49.478;8.986;2023-08-24T01:42:30;16.50;99.90
32612;DHT22;19030;49.478;8.986;2023-08-24T01:44:35;16.50;99.90
32612;DHT22;19030;49.478;8.986;2023-08-24T01:46:37;16.50;99.90
32612;DHT22;19030;49.478;8.986;2023-08-24T01:48:40;16.40;99.90
32612;DHT22;19030;49.478;8.986;2023-08-24T01:50:42;16.40;99.90
32612;DHT22;19030;49.478;8.986;2023-08-24T01:52:43;16.40;99.90
32612;DHT22;19030;49.478;8.986;2023-08-24T01:54:44;16.40;99.90
32612;DHT22;19030;49.478;8.986;2023-08-24T01:56:45;16.40;99.90
32612;DHT22;19030;49.478;8.986;2023-08-24T01:58:46;16.40;99.90
32612;DHT22;19030;49.478;8.986;2023-08-24T02:00:46;16.30;99.90
32612;DHT22;19030;49.478;8.986;2023-08-24T02:02:48;16.30;99.90
32612;DHT22;19030;49.478;8.986;2023-08-24T02:04:49;16.30;99.90
32612;DHT22;19030;49.478;8.986;2023-08-24T02:06:49;16.30;99.90
32612;DHT22;19030;49.478;8.986;2023-08-24T02:08:50;16.20;99.90
32612;DHT22;19030;49.478;8.986;2023-08-24T02:10:50;16.20;99.90
32612;DHT22;19030;49.478;8.986;2023-08-24T02:12:51;16.30;99.90
32612;DHT22;19030;49.478;8.986;2023-08-24T02:14:52;16.30;99.90
32612;DHT22;19030;49.478;8.986;2023-08-24T02:16:53;16.20;99.90
32612;DHT22;19030;49.478;8.986;2023-08-24T02:18:53;16.20;99.90
32612;DHT22;19030;49.478;8.986;2023-08-24T02:20:54;16.20;99.90
32612;DHT22;19030;49.478;8.986;2023-08-24T02:22:54;16.20;99.90
32612;DHT22;19030;49.478;8.986;2023-08-24T02:24:55;16.20;99.90
32612;DHT22;19030;49.478;8.986;2023-08-24T02:26:55;16.10;99.90
32612;DHT22;19030;49.478;8.986;2023-08-24T02:28:57;16.10;99.90
32612;DHT22;19030;49.478;8.986;2023-08-24T02:31:02;16.10;99.90
32612;DHT22;19030;49.478;8.986;2023-08-24T02:33:03;16.10;99.90
32612;DHT22;19030;49.478;8.986;2023-08-24T02:35:04;16.10;99.90
32612;DHT22;19030;49.478;8.986;2023-08-24T02:37:05;16.20;99.90
32612;DHT22;19030;49.478;8.986;2023-08-24T02:39:05;16.20;99.90
32612;DHT22;19030;49.478;8.986;2023-08-24T02:41:07;16.20;99.90
32612;DHT22;19030;49.478;8.986;2023-08-24T02:43:08;16.20;99.90
32612;DHT22;19030;49.478;8.986;2023-08-24T02:45:09;16.20;99.90
32612;DHT22;19030;49.478;8.986;2023-08-24T02:47:10;16.10;99.90
32612;DHT22;19030;49.478;8.986;2023-08-24T02:49:10;16.10;99.90
32612;DHT22;19030;49.478;8.986;2023-08-24T02:51:11;16.20;99.90
32612;DHT22;19030;49.478;8.986;2023-08-24T02:53:12;16.10;99.90
32612;DHT22;19030;49.478;8.986;2023-08-24T02:55:12;16.10;99.90
32612;DHT22;19030;49.478;8.986;2023-08-24T02:57:13;16.10;99.90
32612;DHT22;19030;49.478;8.986;2023-08-24T02:59:14;16.10;99.90
32612;DHT22;19030;49.478;8.986;2023-08-24T03:01:15;16.10;99.90
32612;DHT22;19030;49.478;8.986;2023-08-24T03:03:16;16.10;99.90
32612;DHT22;19030;49.478;8.986;2023-08-24T03:05:18;16.10;99.90
32612;DHT22;19030;49.478;8.986;2023-08-24T03:07:19;16.10;99.90
32612;DHT22;19030;49.478;8.986;2023-08-24T03:09:21;16.10;99.90
32612;DHT22;19030;49.478;8.986;2023-08-24T03:11:22;16.10;99.90
32612;DHT22;19030;49.478;8.986;2023-08-24T03:13:22;16.10;99.90
32612;DHT22;19030;49.478;8.986;2023-08-24T03:15:24;16.10;99.90
32612;DHT22;19030;49.478;8.986;2023-08-24T03:17:25;16.00;99.90
32612;DHT22;19030;49.478;8.986;2023-08-24T03:19:26;16.00;99.90
32612;DHT22;19030;49.478;8.986;2023-08-24T03:21:27;15.90;99.90
32612;DHT22;19030;49.478;8.986;2023-08-24T03:23:27;15.90;99.90
32612;DHT22;19030;49.478;8.986;2023-08-24T03:25:28;15.90;99.90
32612;DHT22;19030;49.478;8.986;2023-08-24T03:27:29;15.90;99.90
32612;DHT22;19030;49.478;8.986;2023-08-24T03:29:29;15.90;99.90
32612;DHT22;19030;49.478;8.986;2023-08-24T03:31:30;15.90;99.90
32612;DHT22;19030;49.478;8.986;2023-08-24T03:33:31;16.00;99.90
32612;DHT22;19030;49.478;8.986;2023-08-24T03:35:33;16.10;99.90
32612;DHT22;19030;49.478;8.986;2023-08-24T03:37:34;16.10;99.90
32612;DHT22;19030;49.478;8.986;2023-08-24T03:39:39;16.00;99.90
32612;DHT22;19030;49.478;8.986;2023-08-24T03:41:39;16.10;99.90
32612;DHT22;19030;49.478;8.986;2023-08-24T03:43:40;16.10;99.90
32612;DHT22;19030;49.478;8.986;2023-08-24T03:45:42;16.10;99.90
32612;DHT22;19030;49.478;8.986;2023-08-24T03:47:42;16.10;99.90
32612;DHT22;19030;49.478;8.986;2023-08-24T03:49:43;16.10;99.90
32612;DHT22;19030;49.478;8.986;2023-08-24T03:51:44;16.10;99.90
32612;DHT22;19030;49.478;8.986;2023-08-24T03:53:44;16.20;99.90
32612;DHT22;19030;49.478;8.986;2023-08-24T03:55:49;16.20;99.90
32612;DHT22;19030;49.478;8.986;2023-08-24T03:57:51;16.20;99.90
32612;DHT22;19030;49.478;8.986;2023-08-24T03:59:52;16.20;99.90
32612;DHT22;19030;49.478;8.986;2023-08-24T04:01:52;16.20;99.90
32612;DHT22;19030;49.478;8.986;2023-08-24T04:03:53;16.20;99.90
32612;DHT22;19030;49.478;8.986;2023-08-24T04:05:54;16.20;99.90
32612;DHT22;19030;49.478;8.986;2023-08-24T04:07:54;16.20;99.90
32612;DHT22;19030;49.478;8.986;2023-08-24T04:09:55;16.20;99.90
32612;DHT22;19030;49.478;8.986;2023-08-24T04:11:56;16.30;99.90
32612;DHT22;19030;49.478;8.986;2023-08-24T04:13:57;16.30;99.90
32612;DHT22;19030;49.478;8.986;2023-08-24T04:15:57;16.30;99.90
32612;DHT22;19030;49.478;8.986;2023-08-24T04:17:58;16.30;99.90
32612;DHT22;19030;49.478;8.986;2023-08-24T04:19:59;16.30;99.90
32612;DHT22;19030;49.478;8.986;2023-08-24T04:21:59;16.30;99.90
32612;DHT22;19030;49.478;8.986;2023-08-24T04:24:00;16.30;99.90
32612;DHT22;19030;49.478;8.986;2023-08-24T04:26:00;16.30;99.90
32612;DHT22;19030;49.478;8.986;2023-08-24T04:28:01;16.30;99.90
32612;DHT22;19030;49.478;8.986;2023-08-24T04:30:02;16.30;99.90
32612;DHT22;19030;49.478;8.986;2023-08-24T04:32:03;16.30;99.90
32612;DHT22;19030;49.478;8.986;2023-08-24T04:34:04;16.40;99.90
32612;DHT22;19030;49.478;8.986;2023-08-24T04:36:05;16.40;99.90
32612;DHT22;19030;49.478;8.986;2023-08-24T04:38:06;16.50;99.90
32612;DHT22;19030;49.478;8.986;2023-08-24T04:40:07;16.50;99.90
32612;DHT22;19030;49.478;8.986;2023-08-24T04:42:07;16.40;99.90
32612;DHT22;19030;49.478;8.986;2023-08-24T04:44:08;16.50;99.90
32612;DHT22;19030;49.478;8.986;2023-08-24T04:46:08;16.50;99.90
32612;DHT22;19030;49.478;8.986;2023-08-24T04:48:09;16.50;99.90
32612;DHT22;19030;49.478;8.986;2023-08-24T04:50:10;16.50;99.90
32612;DHT22;19030;49.478;8.986;2023-08-24T04:52:10;16.60;99.90
32612;DHT22;19030;49.478;8.986;2023-08-24T04:54:11;16.60;99.90
32612;DHT22;19030;49.478;8.986;2023-08-24T04:56:11;16.60;99.90
32612;DHT22;19030;49.478;8.986;2023-08-24T04:58:12;16.60;99.90
32612;DHT22;19030;49.478;8.986;2023-08-24T05:00:14;16.70;99.90
32612;DHT22;19030;49.478;8.986;2023-08-24T05:02:16;16.70;99.90
32612;DHT22;19030;49.478;8.986;2023-08-24T05:04:17;16.70;99.90
32612;DHT22;19030;49.478;8.986;2023-08-24T05:06:18;16.70;99.90
32612;DHT22;19030;49.478;8.986;2023-08-24T05:08:19;16.70;99.90
32612;DHT22;19030;49.478;8.986;2023-08-24T05:10:19;16.70;99.90
32612;DHT22;19030;49.478;8.986;2023-08-24T05:12:20;16.80;99.90
32612;DHT22;19030;49.478;8.986;2023-08-24T05:14:21;16.80;99.90
32612;DHT22;19030;49.478;8.986;2023-08-24T05:16:21;16.80;99.90
32612;DHT22;19030;49.478;8.986;2023-08-24T05:18:22;16.90;99.90
32612;DHT22;19030;49.478;8.986;2023-08-24T05:20:23;16.90;99.90
32612;DHT22;19030;49.478;8.986;2023-08-24T05:22:23;17.00;99.90
32612;DHT22;19030;49.478;8.986;2023-08-24T05:24:24;17.00;99.90
32612;DHT22;19030;49.478;8.986;2023-08-24T05:26:24;17.00;99.90
32612;DHT22;19030;49.478;8.986;2023-08-24T05:28:26;17.00;99.90
32612;DHT22;19030;49.478;8.986;2023-08-24T05:30:26;17.10;99.90
32612;DHT22;19030;49.478;8.986;2023-08-24T05:32:29;17.20;99.90
32612;DHT22;19030;49.478;8.986;2023-08-24T05:34:30;17.30;99.90
32612;DHT22;19030;49.478;8.986;2023-08-24T05:36:30;17.40;99.90
32612;DHT22;19030;49.478;8.986;2023-08-24T05:38:31;17.40;99.90
32612;DHT22;19030;49.478;8.986;2023-08-24T05:40:33;17.50;99.90
32612;DHT22;19030;49.478;8.986;2023-08-24T05:42:34;17.50;99.90
32612;DHT22;19030;49.478;8.986;2023-08-24T05:44:36;17.60;99.90
32612;DHT22;19030;49.478;8.986;2023-08-24T05:46:37;17.70;99.90
32612;DHT22;19030;49.478;8.986;2023-08-24T05:48:38;17.70;99.90
32612;DHT22;19030;49.478;8.986;2023-08-24T05:50:43;17.80;99.90
32612;DHT22;19030;49.478;8.986;2023-08-24T05:52:44;17.90;99.90
32612;DHT22;19030;49.478;8.986;2023-08-24T05:54:45;17.90;99.90
32612;DHT22;19030;49.478;8.986;2023-08-24T05:56:46;18.00;99.90
32612;DHT22;19030;49.478;8.986;2023-08-24T05:58:47;18.10;99.90
32612;DHT22;19030;49.478;8.986;2023-08-24T06:00:48;18.20;99.90
32612;DHT22;19030;49.478;8.986;2023-08-24T06:02:48;18.20;99.90
32612;DHT22;19030;49.478;8.986;2023-08-24T06:04:49;18.20;99.90
32612;DHT22;19030;49.478;8.986;2023-08-24T06:06:51;18.20;99.90
32612;DHT22;19030;49.478;8.986;2023-08-24T06:08:51;18.30;99.90
32612;DHT22;19030;49.478;8.986;2023-08-24T06:10:52;18.30;99.90
32612;DHT22;19030;49.478;8.986;2023-08-24T06:12:52;18.30;99.90
32612;DHT22;19030;49.478;8.986;2023-08-24T06:14:53;18.40;99.90
32612;DHT22;19030;49.478;8.986;2023-08-24T06:16:54;18.40;99.90
32612;DHT22;19030;49.478;8.986;2023-08-24T06:18:55;18.40;99.90
32612;DHT22;19030;49.478;8.986;2023-08-24T06:20:56;18.40;99.90
32612;DHT22;19030;49.478;8.986;2023-08-24T06:22:56;18.50;99.90
32612;DHT22;19030;49.478;8.986;2023-08-24T06:24:57;18.50;99.90
32612;DHT22;19030;49.478;8.986;2023-08-24T06:27:00;18.50;99.90
32612;DHT22;19030;49.478;8.986;2023-08-24T06:29:01;18.60;99.90
32612;DHT22;19030;49.478;8.986;2023-08-24T06:31:01;18.70;99.90
32612;DHT22;19030;49.478;8.986;2023-08-24T06:33:03;18.80;99.90
32612;DHT22;19030;49.478;8.986;2023-08-24T06:35:04;18.90;99.90
32612;DHT22;19030;49.478;8.986;2023-08-24T06:37:06;19.10;99.90
32612;DHT22;19030;49.478;8.986;2023-08-24T06:39:07;19.20;99.90
32612;DHT22;19030;49.478;8.986;2023-08-24T06:41:08;19.30;99.90
32612;DHT22;19030;49.478;8.986;2023-08-24T06:43:12;19.40;99.90
32612;DHT22;19030;49.478;8.986;2023-08-24T06:45:12;19.50;99.90
32612;DHT22;19030;49.478;8.986;2023-08-24T06:47:13;19.60;99.90
32612;DHT22;19030;49.478;8.986;2023-08-24T06:49:14;19.80;99.90
32612;DHT22;19030;49.478;8.986;2023-08-24T06:51:14;19.90;99.90
32612;DHT22;19030;49.478;8.986;2023-08-24T06:53:15;20.00;99.90
32612;DHT22;19030;49.478;8.986;2023-08-24T06:55:15;20.10;99.90
32612;DHT22;19030;49.478;8.986;2023-08-24T06:57:16;20.20;99.90
32612;DHT22;19030;49.478;8.986;2023-08-24T06:59:16;20.20;99.90
32612;DHT22;19030;49.478;8.986;2023-08-24T07:01:17;20.20;99.90
32612;DHT22;19030;49.478;8.986;2023-08-24T07:03:18;20.20;99.90
32612;DHT22;19030;49.478;8.986;2023-08-24T07:05:19;20.20;99.90
32612;DHT22;19030;49.478;8.986;2023-08-24T07:07:20;20.20;99.90
32612;DHT22;19030;49.478;8.986;2023-08-24T07:09:21;20.20;99.90
32612;DHT22;19030;49.478;8.986;2023-08-24T07:11:21;20.30;99.90
32612;DHT22;19030;49.478;8.986;2023-08-24T07:13:23;20.40;99.90
32612;DHT22;19030;49.478;8.986;2023-08-24T07:15:24;20.40;99.90
32612;DHT22;19030;49.478;8.986;2023-08-24T07:17:24;20.60;99.90
32612;DHT22;19030;49.478;8.986;2023-08-24T07:19:25;20.70;99.90
32612;DHT22;19030;49.478;8.986;2023-08-24T07:21:27;20.80;99.90
32612;DHT22;19030;49.478;8.986;2023-08-24T07:23:27;21.00;99.90
32612;DHT22;19030;49.478;8.986;2023-08-24T07:25:28;21.00;99.90
32612;DHT22;19030;49.478;8.986;2023-08-24T07:27:29;21.10;99.90
32612;DHT22;19030;49.478;8.986;2023-08-24T07:29:30;21.20;99.90
32612;DHT22;19030;49.478;8.986;2023-08-24T07:31:30;21.20;99.90
32612;DHT22;19030;49.478;8.986;2023-08-24T07:33:31;21.30;99.90
32612;DHT22;19030;49.478;8.986;2023-08-24T07:35:32;21.40;99.90
32612;DHT22;19030;49.478;8.986;2023-08-24T07:37:32;21.50;99.90
32612;DHT22;19030;49.478;8.986;2023-08-24T07:39:33;21.80;99.90
32612;DHT22;19030;49.478;8.986;2023-08-24T07:41:34;22.40;99.90
32612;DHT22;19030;49.478;8.986;2023-08-24T07:43:34;23.10;99.90
32612;DHT22;19030;49.478;8.986;2023-08-24T07:45:35;23.70;99.90
32612;DHT22;19030;49.478;8.986;2023-08-24T07:47:36;23.90;99.90
32612;DHT22;19030;49.478;8.986;2023-08-24T07:49:36;24.00;99.90
32612;DHT22;19030;49.478;8.986;2023-08-24T07:51:37;24.30;99.90
32612;DHT22;19030;49.478;8.986;2023-08-24T07:53:37;24.80;99.90
32612;DHT22;19030;49.478;8.986;2023-08-24T07:55:38;25.50;99.90
32612;DHT22;19030;49.478;8.986;2023-08-24T07:57:38;26.10;99.90
32612;DHT22;19030;49.478;8.986;2023-08-24T07:59:39;26.90;99.90
32612;DHT22;19030;49.478;8.986;2023-08-24T08:01:39;27.50;99.90
32612;DHT22;19030;49.478;8.986;2023-08-24T08:03:40;27.90;97.00
32612;DHT22;19030;49.478;8.986;2023-08-24T08:05:41;28.20;95.10
32612;DHT22;19030;49.478;8.986;2023-08-24T08:07:41;28.20;94.80
32612;DHT22;19030;49.478;8.986;2023-08-24T08:09:42;28.30;93.20
32612;DHT22;19030;49.478;8.986;2023-08-24T08:11:43;28.20;93.20
32612;DHT22;19030;49.478;8.986;2023-08-24T08:13:43;28.10;93.40
32612;DHT22;19030;49.478;8.986;2023-08-24T08:15:44;28.10;92.70
32612;DHT22;19030;49.478;8.986;2023-08-24T08:17:44;28.30;92.60
32612;DHT22;19030;49.478;8.986;2023-08-24T08:19:46;28.50;91.40
32612;DHT22;19030;49.478;8.986;2023-08-24T08:21:46;28.60;91.00
32612;DHT22;19030;49.478;8.986;2023-08-24T08:23:47;28.90;92.00
32612;DHT22;19030;49.478;8.986;2023-08-24T08:25:47;29.20;92.00
32612;DHT22;19030;49.478;8.986;2023-08-24T08:27:49;29.60;90.30
32612;DHT22;19030;49.478;8.986;2023-08-24T08:29:50;30.00;89.80
32612;DHT22;19030;49.478;8.986;2023-08-24T08:31:50;30.30;86.90
32612;DHT22;19030;49.478;8.986;2023-08-24T08:33:51;30.40;83.20
32612;DHT22;19030;49.478;8.986;2023-08-24T08:35:52;30.50;83.80
32612;DHT22;19030;49.478;8.986;2023-08-24T08:37:52;30.80;81.20
32612;DHT22;19030;49.478;8.986;2023-08-24T08:39:54;31.00;79.30
32612;DHT22;19030;49.478;8.986;2023-08-24T08:41:55;31.50;77.90
32612;DHT22;19030;49.478;8.986;2023-08-24T08:43:55;32.30;76.40
32612;DHT22;19030;49.478;8.986;2023-08-24T08:45:56;32.70;71.60
32612;DHT22;19030;49.478;8.986;2023-08-24T08:47:59;32.70;69.80
32612;DHT22;19030;49.478;8.986;2023-08-24T08:50:02;33.20;70.50
32612;DHT22;19030;49.478;8.986;2023-08-24T08:52:03;34.60;63.30
32612;DHT22;19030;49.478;8.986;2023-08-24T08:54:05;35.20;57.30
32612;DHT22;19030;49.478;8.986;2023-08-24T08:56:07;35.10;57.70
32612;DHT22;19030;49.478;8.986;2023-08-24T08:58:08;35.00;57.00
32612;DHT22;19030;49.478;8.986;2023-08-24T09:00:11;34.50;57.80
32612;DHT22;19030;49.478;8.986;2023-08-24T09:02:14;34.10;59.70
32612;DHT22;19030;49.478;8.986;2023-08-24T09:04:16;34.80;61.90
32612;DHT22;19030;49.478;8.986;2023-08-24T09:06:17;36.10;56.40
32612;DHT22;19030;49.478;8.986;2023-08-24T09:08:18;37.30;52.40
32612;DHT22;19030;49.478;8.986;2023-08-24T09:10:19;37.30;51.30
32612;DHT22;19030;49.478;8.986;2023-08-24T09:12:20;37.30;50.60
32612;DHT22;19030;49.478;8.986;2023-08-24T09:14:21;38.40;48.90
32612;DHT22;19030;49.478;8.986;2023-08-24T09:16:22;39.80;45.20
32612;DHT22;19030;49.478;8.986;2023-08-24T09:18:35;39.60;45.10
32612;DHT22;19030;49.478;8.986;2023-08-24T09:20:36;39.20;45.50
32612;DHT22;19030;49.478;8.986;2023-08-24T09:22:36;38.50;43.90
32612;DHT22;19030;49.478;8.986;2023-08-24T09:24:38;38.80;45.90
32612;DHT22;19030;49.478;8.986;2023-08-24T09:26:38;39.30;44.70
32612;DHT22;19030;49.478;8.986;2023-08-24T09:28:42;40.10;43.70
32612;DHT22;19030;49.478;8.986;2023-08-24T09:30:44;41.10;41.90
32612;DHT22;19030;49.478;8.986;2023-08-24T09:32:45;41.60;40.30
32612;DHT22;19030;49.478;8.986;2023-08-24T09:34:45;41.90;40.60
32612;DHT22;19030;49.478;8.986;2023-08-24T09:36:46;42.30;39.50
32612;DHT22;19030;49.478;8.986;2023-08-24T09:38:47;42.80;36.80
32612;DHT22;19030;49.478;8.986;2023-08-24T09:40:52;42.80;36.90
32612;DHT22;19030;49.478;8.986;2023-08-24T09:42:53;42.40;36.10
32612;DHT22;19030;49.478;8.986;2023-08-24T09:44:53;42.40;36.40
32612;DHT22;19030;49.478;8.986;2023-08-24T09:46:54;43.00;35.80
32612;DHT22;19030;49.478;8.986;2023-08-24T09:48:54;42.90;34.80
32612;DHT22;19030;49.478;8.986;2023-08-24T09:50:58;42.70;35.00
32612;DHT22;19030;49.478;8.986;2023-08-24T09:53:00;43.10;34.70
32612;DHT22;19030;49.478;8.986;2023-08-24T09:55:03;42.70;35.00
32612;DHT22;19030;49.478;8.986;2023-08-24T09:57:08;42.70;34.90
32612;DHT22;19030;49.478;8.986;2023-08-24T09:59:13;42.60;34.50
32612;DHT22;19030;49.478;8.986;2023-08-24T10:01:14;42.40;33.90
32612;DHT22;19030;49.478;8.986;2023-08-24T10:03:17;42.40;34.50
32612;DHT22;19030;49.478;8.986;2023-08-24T10:05:21;42.60;34.00
32612;DHT22;19030;49.478;8.986;2023-08-24T10:07:23;42.90;34.00
32612;DHT22;19030;49.478;8.986;2023-08-24T10:09:31;43.00;33.80
32612;DHT22;19030;49.478;8.986;2023-08-24T10:11:31;42.40;34.70
32612;DHT22;19030;49.478;8.986;2023-08-24T10:13:39;41.90;34.60
32612;DHT22;19030;49.478;8.986;2023-08-24T10:15:41;41.00;35.70
32612;DHT22;19030;49.478;8.986;2023-08-24T10:17:46;40.20;37.00
32612;DHT22;19030;49.478;8.986;2023-08-24T10:19:47;39.90;37.30
32612;DHT22;19030;49.478;8.986;2023-08-24T10:21:48;40.80;37.30
32612;DHT22;19030;49.478;8.986;2023-08-24T10:23:51;40.70;36.20
32612;DHT22;19030;49.478;8.986;2023-08-24T10:25:52;40.30;37.10
32612;DHT22;19030;49.478;8.986;2023-08-24T10:27:53;40.00;36.80
32612;DHT22;19030;49.478;8.986;2023-08-24T10:29:54;40.20;37.20
32612;DHT22;19030;49.478;8.986;2023-08-24T10:31:55;40.00;36.80
32612;DHT22;19030;49.478;8.986;2023-08-24T10:33:56;39.30;37.10
32612;DHT22;19030;49.478;8.986;2023-08-24T10:35:57;39.20;37.60
32612;DHT22;19030;49.478;8.986;2023-08-24T10:37:58;39.10;37.20
32612;DHT22;19030;49.478;8.986;2023-08-24T10:39:59;38.80;37.10
32612;DHT22;19030;49.478;8.986;2023-08-24T10:41:59;38.50;38.40
32612;DHT22;19030;49.478;8.986;2023-08-24T10:44:04;37.60;39.20
32612;DHT22;19030;49.478;8.986;2023-08-24T10:46:11;36.90;41.00
32612;DHT22;19030;49.478;8.986;2023-08-24T10:48:12;36.70;41.40
32612;DHT22;19030;49.478;8.986;2023-08-24T10:50:13;36.00;42.60
32612;DHT22;19030;49.478;8.986;2023-08-24T10:54:29;35.80;43.20
32612;DHT22;19030;49.478;8.986;2023-08-24T10:56:38;36.00;42.90
32612;DHT22;19030;49.478;8.986;2023-08-24T10:58:38;36.50;44.30
32612;DHT22;19030;49.478;8.986;2023-08-24T11:00:39;37.20;42.10
32612;DHT22;19030;49.478;8.986;2023-08-24T11:02:43;37.80;42.60
32612;DHT22;19030;49.478;8.986;2023-08-24T11:07:03;38.20;40.70
32612;DHT22;19030;49.478;8.986;2023-08-24T11:09:08;38.00;40.50
32612;DHT22;19030;49.478;8.986;2023-08-24T11:11:18;37.30;41.60
32612;DHT22;19030;49.478;8.986;2023-08-24T11:13:19;36.70;43.40
32612;DHT22;19030;49.478;8.986;2023-08-24T11:15:32;36.50;44.20
32612;DHT22;19030;49.478;8.986;2023-08-24T11:17:32;36.70;42.90
32612;DHT22;19030;49.478;8.986;2023-08-24T11:19:33;36.90;42.40
32612;DHT22;19030;49.478;8.986;2023-08-24T11:21:34;37.20;42.90
32612;DHT22;19030;49.478;8.986;2023-08-24T11:23:35;37.70;41.90
32612;DHT22;19030;49.478;8.986;2023-08-24T11:25:36;37.80;42.70
32612;DHT22;19030;49.478;8.986;2023-08-24T11:27:36;37.70;42.00
32612;DHT22;19030;49.478;8.986;2023-08-24T11:29:37;38.00;41.40
32612;DHT22;19030;49.478;8.986;2023-08-24T11:31:37;38.20;41.90
32612;DHT22;19030;49.478;8.986;2023-08-24T11:33:38;38.40;41.80
32612;DHT22;19030;49.478;8.986;2023-08-24T11:35:41;38.40;40.40
32612;DHT22;19030;49.478;8.986;2023-08-24T11:37:42;38.10;41.70
32612;DHT22;19030;49.478;8.986;2023-08-24T11:39:45;37.50;42.50
32612;DHT22;19030;49.478;8.986;2023-08-24T11:43:59;37.20;45.10
32612;DHT22;19030;49.478;8.986;2023-08-24T11:46:00;37.50;45.90
32612;DHT22;19030;49.478;8.986;2023-08-24T11:48:00;37.50;43.10
32612;DHT22;19030;49.478;8.986;2023-08-24T11:50:01;37.30;43.50
32612;DHT22;19030;49.478;8.986;2023-08-24T11:52:01;37.20;42.20
32612;DHT22;19030;49.478;8.986;2023-08-24T11:54:02;37.20;43.60
32612;DHT22;19030;49.478;8.986;2023-08-24T11:56:03;37.20;42.60
32612;DHT22;19030;49.478;8.986;2023-08-24T11:58:12;37.20;43.10
32612;DHT22;19030;49.478;8.986;2023-08-24T12:00:13;37.20;43.20
32612;DHT22;19030;49.478;8.986;2023-08-24T12:02:14;37.00;43.70
32612;DHT22;19030;49.478;8.986;2023-08-24T12:04:14;36.70;43.20
32612;DHT22;19030;49.478;8.986;2023-08-24T12:06:15;36.40;43.80
32612;DHT22;19030;49.478;8.986;2023-08-24T12:08:16;36.30;46.50
32612;DHT22;19030;49.478;8.986;2023-08-24T12:10:17;36.30;49.30
32612;DHT22;19030;49.478;8.986;2023-08-24T12:12:17;36.30;47.40
32612;DHT22;19030;49.478;8.986;2023-08-24T12:14:19;36.40;48.60
32612;DHT22;19030;49.478;8.986;2023-08-24T12:16:20;36.60;49.20
32612;DHT22;19030;49.478;8.986;2023-08-24T12:18:21;36.60;50.30
32612;DHT22;19030;49.478;8.986;2023-08-24T12:20:22;36.50;50.70
32612;DHT22;19030;49.478;8.986;2023-08-24T12:22:23;36.40;50.60
32612;DHT22;19030;49.478;8.986;2023-08-24T12:24:23;36.30;52.90
32612;DHT22;19030;49.478;8.986;2023-08-24T12:26:24;36.30;52.50
32612;DHT22;19030;49.478;8.986;2023-08-24T12:28:25;36.40;52.50
32612;DHT22;19030;49.478;8.986;2023-08-24T12:30:25;36.50;53.10
32612;DHT22;19030;49.478;8.986;2023-08-24T12:32:28;36.50;53.20
32612;DHT22;19030;49.478;8.986;2023-08-24T12:34:41;36.70;52.90
32612;DHT22;19030;49.478;8.986;2023-08-24T12:36:44;36.90;52.50
32612;DHT22;19030;49.478;8.986;2023-08-24T12:38:45;37.10;50.50
32612;DHT22;19030;49.478;8.986;2023-08-24T12:40:48;37.30;51.00
32612;DHT22;19030;49.478;8.986;2023-08-24T12:42:49;37.40;51.80
32612;DHT22;19030;49.478;8.986;2023-08-24T12:44:49;37.30;50.20
32612;DHT22;19030;49.478;8.986;2023-08-24T12:46:50;37.20;51.10
32612;DHT22;19030;49.478;8.986;2023-08-24T12:48:50;37.20;51.50
32612;DHT22;19030;49.478;8.986;2023-08-24T12:50:51;37.20;53.50
32612;DHT22;19030;49.478;8.986;2023-08-24T12:52:51;37.20;54.30
32612;DHT22;19030;49.478;8.986;2023-08-24T12:54:56;37.00;53.30
32612;DHT22;19030;49.478;8.986;2023-08-24T12:56:57;36.80;53.10
32612;DHT22;19030;49.478;8.986;2023-08-24T12:58:58;36.60;55.10